createdAt,value
2018-07-21T00:02:25.580Z,24.96
2018-07-21T00:04:54.771Z,24.99
2018-07-21T00:07:23.803Z,25.02
2018-07-21T00:09:52.868Z,25.05
2018-07-21T00:12:22.309Z,24.99
2018-07-21T00:14:51.236Z,24.98
2018-07-21T00:17:20.400Z,25.02
2018-07-21T00:19:49.789Z,24.97
2018-07-21T00:22:18.987Z,24.95
2018-07-21T00:24:48.288Z,25.01
2018-07-21T00:27:17.361Z,25.03
2018-07-21T00:29:46.777Z,24.98
2018-07-21T00:32:16.233Z,24.92
2018-07-21T00:34:45.582Z,24.94
2018-07-21T00:37:14.932Z,24.92
2018-07-21T00:39:44.249Z,24.94
2018-07-21T00:42:13.577Z,24.97
2018-07-21T00:44:42.804Z,24.94
2018-07-21T00:47:11.920Z,24.95
2018-07-21T00:49:40.951Z,24.97
2018-07-21T00:52:10.201Z,24.99
2018-07-21T00:54:39.478Z,24.98
2018-07-21T00:57:08.501Z,24.91
2018-07-21T00:59:37.453Z,24.90
2018-07-21T01:02:06.783Z,24.93
2018-07-21T01:04:36.124Z,24.88
2018-07-21T01:07:05.373Z,24.88
2018-07-21T01:09:34.659Z,24.89
2018-07-21T01:12:04.018Z,24.86
2018-07-21T01:14:33.144Z,24.83
2018-07-21T01:17:02.383Z,24.85
2018-07-21T01:19:31.679Z,24.86
2018-07-21T01:22:00.931Z,24.82
2018-07-21T01:24:30.123Z,24.85
2018-07-21T01:26:59.426Z,24.78
2018-07-21T01:29:28.756Z,24.72
2018-07-21T01:31:58.041Z,24.74
2018-07-21T01:34:27.415Z,24.68
2018-07-21T01:36:56.689Z,24.65
2018-07-21T01:39:26.030Z,24.64
2018-07-21T01:41:55.040Z,24.48
2018-07-21T01:44:25.353Z,24.53
2018-07-21T01:46:54.641Z,24.39
2018-07-21T01:49:24.040Z,24.19
2018-07-21T01:51:53.391Z,24.22
2018-07-21T01:54:22.285Z,24.17
2018-07-21T01:56:51.435Z,24.11
2018-07-21T01:59:20.831Z,24.10
2018-07-21T02:01:50.068Z,24.06
2018-07-21T02:04:19.036Z,24.00
2018-07-21T02:06:48.221Z,23.97
2018-07-21T02:09:17.411Z,24.00
2018-07-21T02:11:46.594Z,24.14
2018-07-21T02:14:15.820Z,24.20
2018-07-21T02:16:44.846Z,24.29
2018-07-21T02:19:14.073Z,24.32
2018-07-21T02:21:43.044Z,24.24
2018-07-21T02:24:12.290Z,24.31
2018-07-21T02:26:41.647Z,24.25
2018-07-21T02:29:10.791Z,24.13
2018-07-21T02:31:40.078Z,24.18
2018-07-21T02:34:09.542Z,24.25
2018-07-21T02:36:38.763Z,24.13
2018-07-21T02:39:10.916Z,23.91
2018-07-21T02:41:40.463Z,23.79
2018-07-21T02:44:09.679Z,23.67
2018-07-21T02:46:39.062Z,23.62
2018-07-21T02:49:08.196Z,23.57
2018-07-21T02:51:37.563Z,23.56
2018-07-21T02:54:06.788Z,23.63
2018-07-21T02:56:36.009Z,23.70
2018-07-21T02:59:05.120Z,23.71
2018-07-21T03:01:34.307Z,23.73
2018-07-21T03:04:03.326Z,23.74
2018-07-21T03:06:32.614Z,23.75
2018-07-21T03:09:01.864Z,23.77
2018-07-21T03:11:31.121Z,23.86
2018-07-21T03:14:00.635Z,23.92
2018-07-21T03:16:30.120Z,24.03
2018-07-21T03:18:59.505Z,24.08
2018-07-21T03:21:28.595Z,24.15
2018-07-21T03:23:57.662Z,24.23
2018-07-21T03:26:27.056Z,24.29
2018-07-21T03:28:56.252Z,24.34
2018-07-21T03:31:25.648Z,24.39
2018-07-21T03:33:54.808Z,24.46
2018-07-21T03:36:24.207Z,24.46
2018-07-21T03:38:53.400Z,24.51
2018-07-21T03:41:22.782Z,24.52
2018-07-21T03:43:52.215Z,24.62
2018-07-21T03:46:21.666Z,24.62
2018-07-21T03:48:50.630Z,24.63
2018-07-21T03:51:19.837Z,24.60
2018-07-21T03:53:49.199Z,24.56
2018-07-21T03:56:18.556Z,24.55
2018-07-21T03:58:47.719Z,24.57
2018-07-21T04:01:17.071Z,24.61
2018-07-21T04:03:45.905Z,24.66
2018-07-21T04:06:14.976Z,24.66
2018-07-21T04:08:44.476Z,24.72
2018-07-21T04:11:13.821Z,24.79
2018-07-21T04:13:43.028Z,24.83
2018-07-21T04:16:12.017Z,24.88
2018-07-21T04:18:41.343Z,24.95
2018-07-21T04:21:10.616Z,24.99
2018-07-21T04:23:39.907Z,25.06
2018-07-21T04:26:09.096Z,25.09
2018-07-21T04:28:38.340Z,25.06
2018-07-21T04:31:08.055Z,25.04
2018-07-21T04:33:37.316Z,25.03
2018-07-21T04:36:06.395Z,25.01
2018-07-21T04:38:35.751Z,24.95
2018-07-21T04:41:05.115Z,24.91
2018-07-21T04:43:34.169Z,24.89
2018-07-21T04:46:03.208Z,24.86
2018-07-21T04:48:32.185Z,24.88
2018-07-21T04:51:01.225Z,24.98
2018-07-21T04:53:30.568Z,25.01
2018-07-21T04:55:59.792Z,25.13
2018-07-21T04:58:29.122Z,25.26
2018-07-21T05:00:58.402Z,25.29
2018-07-21T05:03:27.570Z,25.42
2018-07-21T05:05:57.036Z,25.54
2018-07-21T05:08:26.645Z,25.61
2018-07-21T05:10:55.754Z,25.63
2018-07-21T05:13:25.188Z,25.68
2018-07-21T05:15:54.351Z,25.67
2018-07-21T05:18:23.608Z,25.82
2018-07-21T05:20:52.618Z,25.81
2018-07-21T05:23:21.512Z,25.76
2018-07-21T05:25:50.755Z,25.74
2018-07-21T05:28:19.699Z,25.72
2018-07-21T05:30:48.971Z,25.79
2018-07-21T05:33:17.940Z,25.83
2018-07-21T05:35:47.278Z,25.85
2018-07-21T05:38:16.615Z,25.91
2018-07-21T05:40:45.754Z,25.93
2018-07-21T05:43:15.037Z,25.90
2018-07-21T05:45:44.413Z,25.90
2018-07-21T05:48:13.607Z,25.85
2018-07-21T05:50:42.828Z,25.88
2018-07-21T05:53:12.244Z,25.84
2018-07-21T05:55:41.471Z,25.88
2018-07-21T05:58:10.858Z,25.93
2018-07-21T06:00:40.117Z,25.93
2018-07-21T06:03:09.524Z,25.87
2018-07-21T06:05:38.472Z,25.89
2018-07-21T06:08:07.969Z,26.01
2018-07-21T06:10:36.871Z,26.23
2018-07-21T06:13:06.341Z,26.32
2018-07-21T06:15:35.639Z,26.31
2018-07-21T06:18:04.993Z,26.34
2018-07-21T06:20:34.470Z,26.37
2018-07-21T06:23:03.899Z,26.43
2018-07-21T06:25:33.348Z,26.45
2018-07-21T06:28:02.824Z,26.51
2018-07-21T06:30:32.001Z,26.56
2018-07-21T06:33:01.350Z,26.59
2018-07-21T06:35:30.734Z,26.66
2018-07-21T06:37:59.891Z,26.66
2018-07-21T06:40:29.168Z,26.59
2018-07-21T06:42:58.649Z,26.68
2018-07-21T06:45:28.131Z,26.78
2018-07-21T06:47:57.451Z,26.90
2018-07-21T06:50:26.805Z,27.08
2018-07-21T06:52:56.120Z,27.10
2018-07-21T06:55:25.484Z,27.20
2018-07-21T06:57:54.703Z,27.17
2018-07-21T07:00:23.723Z,27.08
2018-07-21T07:02:52.875Z,27.13
2018-07-21T07:05:21.996Z,27.16
2018-07-21T07:07:51.189Z,27.18
2018-07-21T07:10:20.524Z,27.21
2018-07-21T07:12:49.583Z,27.30
2018-07-21T07:15:18.872Z,27.44
2018-07-21T07:17:47.872Z,27.54
2018-07-21T07:20:17.017Z,27.62
2018-07-21T07:22:46.408Z,27.65
2018-07-21T07:25:15.760Z,27.78
2018-07-21T07:27:45.109Z,27.86
2018-07-21T07:30:14.510Z,27.76
2018-07-21T07:32:43.472Z,27.79
2018-07-21T07:35:12.525Z,27.65
2018-07-21T07:37:41.703Z,27.67
2018-07-21T07:40:10.751Z,27.68
2018-07-21T07:42:40.133Z,27.76
2018-07-21T07:45:09.475Z,27.86
2018-07-21T07:47:38.614Z,27.95
2018-07-21T07:50:07.746Z,27.96
2018-07-21T07:52:37.028Z,28.06
2018-07-21T07:55:06.248Z,28.10
2018-07-21T07:57:35.868Z,28.18
2018-07-21T08:00:05.833Z,28.20
2018-07-21T08:02:34.864Z,28.15
2018-07-21T08:05:04.139Z,28.08
2018-07-21T08:07:33.345Z,28.11
2018-07-21T08:10:02.326Z,28.23
2018-07-21T08:12:31.407Z,28.28
2018-07-21T08:15:00.249Z,28.43
2018-07-21T08:17:29.444Z,28.56
2018-07-21T08:19:58.699Z,28.48
2018-07-21T08:22:28.009Z,28.49
2018-07-21T08:24:57.345Z,28.49
2018-07-21T08:27:26.645Z,28.55
2018-07-21T08:29:56.033Z,28.66
2018-07-21T08:32:25.447Z,28.77
2018-07-21T08:34:54.745Z,28.96
2018-07-21T08:37:23.768Z,29.08
2018-07-21T08:39:53.163Z,29.23
2018-07-21T08:42:22.344Z,29.35
2018-07-21T08:44:51.697Z,29.37
2018-07-21T08:47:20.714Z,29.10
2018-07-21T08:49:50.090Z,29.10
2018-07-21T08:52:19.069Z,29.12
2018-07-21T08:54:48.330Z,29.19
2018-07-21T08:57:17.718Z,29.23
2018-07-21T08:59:46.927Z,29.22
2018-07-21T09:02:16.183Z,29.41
2018-07-21T09:04:45.158Z,29.65
2018-07-21T09:07:14.391Z,29.83
2018-07-21T09:09:43.602Z,29.93
2018-07-21T09:12:13.000Z,29.82
2018-07-21T09:14:42.477Z,29.92
2018-07-21T09:17:11.748Z,30.07
2018-07-21T09:19:40.887Z,29.97
2018-07-21T09:22:10.150Z,30.07
2018-07-21T09:24:39.294Z,30.26
2018-07-21T09:27:08.190Z,30.39
2018-07-21T09:29:37.145Z,31.02
2018-07-21T09:32:06.391Z,31.16
2018-07-21T09:34:35.783Z,31.64
2018-07-21T09:37:05.132Z,31.86
2018-07-21T09:39:34.361Z,33.01
2018-07-21T09:42:03.676Z,34.43
2018-07-21T09:44:32.935Z,35.22
2018-07-21T09:47:02.310Z,34.64
2018-07-21T09:49:31.424Z,35.17
2018-07-21T09:52:00.260Z,35.60
2018-07-21T09:54:29.356Z,36.21
2018-07-21T09:56:58.642Z,37.17
2018-07-21T09:59:27.893Z,37.69
2018-07-21T10:01:57.344Z,38.95
2018-07-21T10:04:26.710Z,40.48
2018-07-21T10:06:56.135Z,41.85
2018-07-21T10:09:25.200Z,42.30
2018-07-21T10:11:54.458Z,43.38
2018-07-21T10:14:23.667Z,43.84
2018-07-21T10:16:52.923Z,44.05
2018-07-21T10:19:22.178Z,44.89
2018-07-21T10:21:51.372Z,45.23
2018-07-21T10:25:28.509Z,45.56
2018-07-21T10:28:02.835Z,46.81
2018-07-21T10:30:32.328Z,47.54
2018-07-21T10:33:01.549Z,47.90
2018-07-21T10:35:30.853Z,48.23
2018-07-21T10:38:00.150Z,48.82
2018-07-21T10:40:29.499Z,48.88
2018-07-21T10:42:58.706Z,48.56
2018-07-21T10:45:28.361Z,49.01
2018-07-21T10:47:57.585Z,49.29
2018-07-21T10:50:26.860Z,48.02
2018-07-21T10:52:55.839Z,47.41
2018-07-21T10:55:24.940Z,47.09
2018-07-21T10:57:54.422Z,47.18
2018-07-21T11:00:23.731Z,46.80
2018-07-21T11:02:53.244Z,46.30
2018-07-21T11:05:22.275Z,47.06
2018-07-21T11:07:51.341Z,48.17
2018-07-21T11:10:20.630Z,48.95
2018-07-21T11:12:49.736Z,49.44
2018-07-21T11:15:18.740Z,48.29
2018-07-21T11:17:48.127Z,48.49
2018-07-21T11:20:17.624Z,48.68
2018-07-21T11:22:46.966Z,48.97
2018-07-21T11:25:16.202Z,49.21
2018-07-21T11:27:45.588Z,49.57
2018-07-21T11:30:14.607Z,49.47
2018-07-21T11:32:43.860Z,49.73
2018-07-21T11:35:13.238Z,50.11
2018-07-21T11:37:42.439Z,50.40
2018-07-21T11:40:11.637Z,50.35
2018-07-21T11:42:40.825Z,50.21
2018-07-21T11:45:10.064Z,50.36
2018-07-21T11:47:39.568Z,50.41
2018-07-21T11:50:08.511Z,50.58
2018-07-21T11:52:37.420Z,50.50
2018-07-21T11:55:07.036Z,50.55
2018-07-21T11:57:36.456Z,50.69
2018-07-21T12:00:05.791Z,50.99
2018-07-21T12:02:35.073Z,51.15
2018-07-21T12:05:04.184Z,51.25
2018-07-21T12:07:33.358Z,50.65
2018-07-21T12:10:02.852Z,50.19
2018-07-21T12:12:32.105Z,49.09
2018-07-21T12:15:01.548Z,48.71
2018-07-21T12:17:30.902Z,48.36
2018-07-21T12:19:59.923Z,48.08
2018-07-21T12:22:29.137Z,48.25
2018-07-21T12:24:58.471Z,48.26
2018-07-21T12:27:27.872Z,48.10
2018-07-21T12:29:56.954Z,47.91
2018-07-21T12:32:26.251Z,47.86
2018-07-21T12:34:55.159Z,48.20
2018-07-21T12:37:24.442Z,48.94
2018-07-21T12:39:53.608Z,49.32
2018-07-21T12:42:23.033Z,49.25
2018-07-21T12:44:52.363Z,49.21
2018-07-21T12:47:21.491Z,49.08
2018-07-21T12:49:50.604Z,48.82
2018-07-21T12:52:20.000Z,48.85
2018-07-21T12:54:49.219Z,48.38
2018-07-21T12:57:18.403Z,47.24
2018-07-21T12:59:47.726Z,47.05
2018-07-21T13:02:16.864Z,47.07
2018-07-21T13:04:46.029Z,46.98
2018-07-21T13:07:15.037Z,46.92
2018-07-21T13:09:44.772Z,46.93
2018-07-21T13:12:14.199Z,46.82
2018-07-21T13:14:43.543Z,47.04
2018-07-21T13:17:13.217Z,47.35
2018-07-21T13:19:42.470Z,47.55
2018-07-21T13:22:11.595Z,47.63
2018-07-21T13:24:40.960Z,46.62
2018-07-21T13:27:10.316Z,46.15
2018-07-21T13:29:39.540Z,46.00
2018-07-21T13:32:08.897Z,45.58
2018-07-21T13:34:38.215Z,45.49
2018-07-21T13:37:07.663Z,45.68
2018-07-21T13:39:36.804Z,45.39
2018-07-21T13:42:05.838Z,45.19
2018-07-21T13:44:35.054Z,43.95
2018-07-21T13:47:04.460Z,42.53
2018-07-21T13:49:33.644Z,42.86
2018-07-21T13:52:02.988Z,42.57
2018-07-21T13:54:32.436Z,42.52
2018-07-21T13:57:01.748Z,42.79
2018-07-21T13:59:31.129Z,43.13
2018-07-21T14:02:00.590Z,42.39
2018-07-21T14:04:30.017Z,41.98
2018-07-21T14:06:58.953Z,41.99
2018-07-21T14:09:28.083Z,41.71
2018-07-21T14:11:57.323Z,41.08
2018-07-21T14:14:26.620Z,40.26
2018-07-21T14:16:55.845Z,39.41
2018-07-21T14:19:25.283Z,38.85
2018-07-21T14:21:55.252Z,38.28
2018-07-21T14:24:24.803Z,37.93
2018-07-21T14:26:54.263Z,37.65
2018-07-21T14:29:23.565Z,37.39
2018-07-21T14:31:52.532Z,37.13
2018-07-21T14:34:21.785Z,36.93
2018-07-21T14:36:51.048Z,36.87
2018-07-21T14:39:20.340Z,36.70
2018-07-21T14:41:49.845Z,36.48
2018-07-21T14:44:19.070Z,36.19
2018-07-21T14:46:48.419Z,36.05
2018-07-21T14:49:17.406Z,35.87
2018-07-21T14:51:46.457Z,35.63
2018-07-21T14:54:15.969Z,35.52
2018-07-21T14:56:45.457Z,35.42
2018-07-21T14:59:14.756Z,35.30
2018-07-21T15:01:44.020Z,35.15
2018-07-21T15:04:13.458Z,34.82
2018-07-21T15:06:42.561Z,34.61
2018-07-21T15:09:12.504Z,34.54
2018-07-21T15:11:41.704Z,34.45
2018-07-21T15:14:11.008Z,34.48
2018-07-21T15:16:40.369Z,34.50
2018-07-21T15:19:09.707Z,34.50
2018-07-21T15:21:39.064Z,34.36
2018-07-21T15:24:08.530Z,34.23
2018-07-21T15:26:37.911Z,34.09
2018-07-21T15:29:07.203Z,33.89
2018-07-21T15:31:36.571Z,33.64
2018-07-21T15:34:05.965Z,33.58
2018-07-21T15:36:35.115Z,33.56
2018-07-21T15:39:05.021Z,33.49
2018-07-21T15:41:34.367Z,33.39
2018-07-21T15:44:03.774Z,33.27
2018-07-21T15:46:32.922Z,33.28
2018-07-21T15:49:02.279Z,33.12
2018-07-21T15:51:31.182Z,33.00
2018-07-21T15:54:00.495Z,32.93
2018-07-21T15:56:29.807Z,32.92
2018-07-21T15:58:58.940Z,32.90
2018-07-21T16:01:28.214Z,32.93
2018-07-21T16:03:57.177Z,32.90
2018-07-21T16:06:26.540Z,32.82
2018-07-21T16:08:55.974Z,32.74
2018-07-21T16:11:24.820Z,32.70
2018-07-21T16:13:54.056Z,32.53
2018-07-21T16:16:23.560Z,32.40
2018-07-21T16:18:52.599Z,32.35
2018-07-21T16:21:21.629Z,32.27
2018-07-21T16:23:50.920Z,32.20
2018-07-21T16:26:20.022Z,32.14
2018-07-21T16:28:49.340Z,32.06
2018-07-21T16:31:18.828Z,32.01
2018-07-21T16:33:48.073Z,32.05
2018-07-21T16:36:17.498Z,31.99
2018-07-21T16:38:46.798Z,31.95
2018-07-21T16:41:16.039Z,31.89
2018-07-21T16:43:45.218Z,31.82
2018-07-21T16:46:14.042Z,31.76
2018-07-21T16:48:43.115Z,31.64
2018-07-21T16:51:12.220Z,31.60
2018-07-21T16:53:41.326Z,31.52
2018-07-21T16:56:10.390Z,31.45
2018-07-21T16:58:39.542Z,31.35
2018-07-21T17:01:08.550Z,31.24
2018-07-21T17:03:37.676Z,31.13
2018-07-21T17:06:06.918Z,31.10
2018-07-21T17:08:36.012Z,31.03
2018-07-21T17:11:05.362Z,30.92
2018-07-21T17:13:34.674Z,30.87
2018-07-21T17:16:03.907Z,30.76
2018-07-21T17:18:32.989Z,30.67
2018-07-21T17:21:02.227Z,30.64
2018-07-21T17:23:31.144Z,30.54
2018-07-21T17:26:00.453Z,30.45
2018-07-21T17:28:29.543Z,30.36
2018-07-21T17:30:58.578Z,30.24
2018-07-21T17:33:27.614Z,30.11
2018-07-21T17:35:56.359Z,30.05
2018-07-21T17:38:25.664Z,29.99
2018-07-21T17:40:54.451Z,29.85
2018-07-21T17:43:23.496Z,29.73
2018-07-21T17:45:52.638Z,29.59
2018-07-21T17:48:21.972Z,29.47
2018-07-21T17:50:51.220Z,29.21
2018-07-21T17:53:20.072Z,29.07
2018-07-21T17:55:49.358Z,29.05
2018-07-21T17:58:18.411Z,28.89
2018-07-21T18:00:47.654Z,28.74
2018-07-21T18:03:16.857Z,28.56
2018-07-21T18:05:46.247Z,28.49
2018-07-21T18:08:15.552Z,28.33
2018-07-21T18:10:44.751Z,28.18
2018-07-21T18:13:13.761Z,28.12
2018-07-21T18:15:43.078Z,27.99
2018-07-21T18:18:12.232Z,27.85
2018-07-21T18:20:41.576Z,27.76
2018-07-21T18:23:10.662Z,27.80
2018-07-21T18:25:40.050Z,27.77
2018-07-21T18:28:09.202Z,27.65
2018-07-21T18:30:38.541Z,27.57
2018-07-21T18:33:07.607Z,27.50
2018-07-21T18:35:36.376Z,27.41
2018-07-21T18:38:05.491Z,27.35
2018-07-21T18:40:34.730Z,27.26
2018-07-21T18:43:03.639Z,27.16
2018-07-21T18:45:32.818Z,27.04
2018-07-21T18:48:01.855Z,27.00
2018-07-21T18:50:31.060Z,26.96
2018-07-21T18:52:59.991Z,26.92
2018-07-21T18:55:29.212Z,26.94
2018-07-21T18:57:58.187Z,26.98
2018-07-21T19:00:27.368Z,26.98
2018-07-21T19:02:56.510Z,26.87
2018-07-21T19:05:25.550Z,26.84
2018-07-21T19:07:54.674Z,26.79
2018-07-21T19:10:23.773Z,26.71
2018-07-21T19:12:52.802Z,26.68
2018-07-21T19:15:26.844Z,26.63
2018-07-21T19:17:55.820Z,26.60
2018-07-21T19:20:30.121Z,26.53
2018-07-21T19:22:59.111Z,26.45
2018-07-21T19:26:34.904Z,26.52
2018-07-21T19:29:04.021Z,26.60
2018-07-21T19:31:33.323Z,26.66
2018-07-21T19:34:02.368Z,26.79
2018-07-21T19:36:31.451Z,26.93
2018-07-21T19:39:00.798Z,26.96
2018-07-21T19:41:34.677Z,27.02
2018-07-21T19:44:03.652Z,26.98
2018-07-21T19:46:32.832Z,26.90
2018-07-21T19:49:02.107Z,26.84
2018-07-21T19:51:31.109Z,26.74
2018-07-21T19:53:59.916Z,26.68
2018-07-21T19:56:29.226Z,26.54
2018-07-21T19:58:58.370Z,26.48
2018-07-21T20:01:27.166Z,26.41
2018-07-21T20:03:56.056Z,26.31
2018-07-21T20:06:25.080Z,26.30
2018-07-21T20:08:54.150Z,26.25
2018-07-21T20:11:23.426Z,26.21
2018-07-21T20:13:52.579Z,26.12
2018-07-21T20:16:21.818Z,26.03
2018-07-21T20:18:50.898Z,25.97
2018-07-21T20:21:20.010Z,25.92
2018-07-21T20:23:49.074Z,25.79
2018-07-21T20:26:18.179Z,25.87
2018-07-21T20:28:47.340Z,25.81
2018-07-21T20:31:16.206Z,25.83
2018-07-21T20:33:45.421Z,25.68
2018-07-21T20:36:14.634Z,25.72
2018-07-21T20:38:43.478Z,25.76
2018-07-21T20:41:12.598Z,25.70
2018-07-21T20:43:41.674Z,25.71
2018-07-21T20:46:10.902Z,25.61
2018-07-21T20:48:40.171Z,25.55
2018-07-21T20:51:09.632Z,25.60
2018-07-21T20:53:38.746Z,25.46
2018-07-21T20:56:07.634Z,25.38
2018-07-21T20:58:36.352Z,25.26
2018-07-21T21:01:05.510Z,25.17
2018-07-21T21:03:34.543Z,25.15
2018-07-21T21:06:03.662Z,25.21
2018-07-21T21:08:32.538Z,25.15
2018-07-21T21:11:01.778Z,25.04
2018-07-21T21:13:30.580Z,24.98
2018-07-21T21:15:59.569Z,24.95
2018-07-21T21:18:28.599Z,24.95
2018-07-21T21:20:57.348Z,24.99
2018-07-21T21:23:26.326Z,25.05
2018-07-21T21:25:55.418Z,25.10
2018-07-21T21:28:24.702Z,25.13
2018-07-21T21:30:53.972Z,25.12
2018-07-21T21:33:23.204Z,25.12
2018-07-21T21:35:52.137Z,25.15
2018-07-21T21:38:21.111Z,25.27
2018-07-21T21:40:50.251Z,25.31
2018-07-21T21:43:19.636Z,25.28
2018-07-21T21:45:48.443Z,25.24
2018-07-21T21:48:17.663Z,25.27
2018-07-21T21:50:46.729Z,25.37
2018-07-21T21:53:15.822Z,25.46
2018-07-21T21:55:45.023Z,25.57
2018-07-21T21:58:14.127Z,25.79
2018-07-21T22:01:17.506Z,25.89
2018-07-21T22:03:46.452Z,25.97
2018-07-21T22:06:15.811Z,26.03
2018-07-21T22:08:45.065Z,25.99
2018-07-21T22:11:13.865Z,25.94
2018-07-21T22:13:43.030Z,25.78
2018-07-21T22:16:12.268Z,25.78
2018-07-21T22:18:41.459Z,25.75
2018-07-21T22:21:10.225Z,25.57
2018-07-21T22:23:39.198Z,25.46
2018-07-21T22:26:08.507Z,25.37
2018-07-21T22:28:37.533Z,25.23
2018-07-21T22:31:06.774Z,25.10
2018-07-21T22:33:35.602Z,25.00
2018-07-21T22:36:04.799Z,24.91
2018-07-21T22:38:33.624Z,24.78
2018-07-21T22:41:02.366Z,24.69
2018-07-21T22:43:31.212Z,24.62
2018-07-21T22:46:00.406Z,24.58
2018-07-21T22:48:29.626Z,24.50
2018-07-21T22:50:58.674Z,24.46
2018-07-21T22:53:28.041Z,24.33
2018-07-21T22:55:57.255Z,24.41
2018-07-21T22:58:26.361Z,24.44
2018-07-21T23:00:55.318Z,24.42
2018-07-21T23:03:24.538Z,24.41
2018-07-21T23:05:53.753Z,24.33
2018-07-21T23:08:22.963Z,24.31
2018-07-21T23:10:51.866Z,24.24
2018-07-21T23:13:20.715Z,24.16
2018-07-21T23:15:50.005Z,24.15
2018-07-21T23:18:19.350Z,24.08
2018-07-21T23:20:48.407Z,24.12
2018-07-21T23:23:17.625Z,24.09
2018-07-21T23:25:46.822Z,24.08
2018-07-21T23:28:15.889Z,24.03
2018-07-21T23:30:45.091Z,23.99
2018-07-21T23:33:14.279Z,23.94
2018-07-21T23:35:43.405Z,23.82
2018-07-21T23:38:12.571Z,23.70
2018-07-21T23:40:41.739Z,23.85
2018-07-21T23:43:10.762Z,23.80
2018-07-21T23:45:39.862Z,23.76
2018-07-21T23:48:08.862Z,23.70
2018-07-21T23:50:38.186Z,23.60
2018-07-21T23:53:07.112Z,23.60
2018-07-21T23:55:36.239Z,23.59
2018-07-21T23:58:05.774Z,23.57
